Time;durP1;ratioP1;P1;durP2;ratioP2;P2;SDS_P1;SDS_P2;PMS_P1;PMS_P2;Temp;Humidity;BMP_temperature;BMP_pressure;BME280_temperature;BME280_humidity;BME280_pressure;Samples;Min_cycle;Max_cycle;Signal;HPM_P1;HPM_P2
2024/03/24 00:00:22;;;;;;;7.20;2.50;;;;;;;6.75;100.00;100680.41;5276784;28;20015;-77
2024/03/24 00:02:52;;;;;;;7.78;2.38;;;;;;;6.80;100.00;100677.31;5271439;28;20028;-75
2024/03/24 00:05:23;;;;;;;8.55;2.80;;;;;;;6.84;100.00;100679.53;5267184;28;20024;-76
2024/03/24 00:07:54;;;;;;;7.07;2.40;;;;;;;6.89;100.00;100677.28;5271004;28;20059;-77
2024/03/24 00:10:24;;;;;;;8.65;2.25;;;;;;;6.90;100.00;100672.78;5268425;28;20034;-76
2024/03/24 00:12:55;;;;;;;11.20;3.45;;;;;;;6.94;100.00;100683.00;5268482;28;20043;-75
2024/03/24 00:15:25;;;;;;;8.27;2.33;;;;;;;6.99;100.00;100685.25;5273547;28;20106;-75
2024/03/24 00:17:56;;;;;;;9.82;3.28;;;;;;;7.01;100.00;100689.44;5265482;28;20092;-77
2024/03/24 00:20:27;;;;;;;8.55;2.80;;;;;;;7.12;100.00;100683.06;5269978;28;20065;-75
2024/03/24 00:22:57;;;;;;;11.13;2.70;;;;;;;7.09;100.00;100679.88;5264170;28;20059;-75
2024/03/24 00:25:28;;;;;;;8.30;2.55;;;;;;;7.08;100.00;100680.84;5267860;28;20373;-78
2024/03/24 00:27:59;;;;;;;7.75;2.28;;;;;;;7.12;100.00;100677.72;5266672;28;20477;-75
2024/03/24 00:30:29;;;;;;;15.55;3.15;;;;;;;7.16;100.00;100678.28;5270068;28;20020;-75
2024/03/24 00:33:00;;;;;;;8.10;2.42;;;;;;;7.16;100.00;100673.78;5270333;28;20027;-78
2024/03/24 00:35:31;;;;;;;11.27;2.60;;;;;;;7.13;100.00;100659.88;5266504;28;20108;-76
2024/03/24 00:38:02;;;;;;;12.05;2.85;;;;;;;7.08;100.00;100660.34;5274355;28;20030;-77
2024/03/24 00:40:32;;;;;;;7.43;2.58;;;;;;;7.08;100.00;100652.34;5271198;28;20095;-76
2024/03/24 00:43:03;;;;;;;10.18;3.10;;;;;;;7.17;100.00;100656.78;5273370;28;20028;-75
2024/03/24 00:45:34;;;;;;;8.57;2.63;;;;;;;7.26;100.00;100661.22;5272971;28;20107;-76
2024/03/24 00:48:05;;;;;;;7.55;3.08;;;;;;;7.22;100.00;100654.50;5266335;28;20103;-75
2024/03/24 00:50:36;;;;;;;8.18;2.67;;;;;;;7.25;100.00;100654.22;5265283;28;20049;-75
2024/03/24 00:53:09;;;;;;;7.97;2.67;;;;;;;7.22;100.00;100659.00;5268902;28;20036;-75
2024/03/24 00:55:39;;;;;;;4.15;2.38;;;;;;;7.26;100.00;100636.38;5274392;28;20016;-74
2024/03/24 00:58:10;;;;;;;6.85;2.53;;;;;;;7.29;100.00;100648.59;5272847;28;20026;-74
2024/03/24 01:00:43;;;;;;;7.00;2.45;;;;;;;7.34;100.00;100648.97;5271910;28;20188;-74
2024/03/24 01:03:15;;;;;;;8.68;2.83;;;;;;;7.37;100.00;100646.00;5268048;28;20030;-74
2024/03/24 01:05:47;;;;;;;8.52;2.55;;;;;;;7.25;100.00;100640.03;5268195;28;20686;-76
2024/03/24 01:08:18;;;;;;;12.35;3.38;;;;;;;7.23;100.00;100640.19;5257957;28;20509;-75
2024/03/24 01:10:49;;;;;;;9.18;2.92;;;;;;;7.29;100.00;100627.25;5266787;28;20106;-76
2024/03/24 01:13:22;;;;;;;10.38;2.78;;;;;;;7.22;100.00;100635.81;5271569;28;20472;-75
2024/03/24 01:15:53;;;;;;;13.20;2.92;;;;;;;7.29;100.00;100629.91;5270299;28;20012;-77
2024/03/24 01:18:24;;;;;;;13.40;3.08;;;;;;;7.17;100.00;100618.59;5268794;28;20027;-74
2024/03/24 01:20:55;;;;;;;12.25;3.20;;;;;;;7.23;100.00;100620.69;5269493;28;20026;-76
2024/03/24 01:23:26;;;;;;;8.15;2.83;;;;;;;7.31;100.00;100615.41;5264507;28;20024;-76
2024/03/24 01:25:56;;;;;;;14.27;3.55;;;;;;;7.19;100.00;100603.28;5265432;28;20520;-77
2024/03/24 01:28:27;;;;;;;7.53;3.35;;;;;;;7.26;100.00;100591.00;5266985;28;20023;-79
2024/03/24 01:30:57;;;;;;;13.45;4.43;;;;;;;7.15;100.00;100584.06;5269058;28;20027;-76
2024/03/24 01:33:28;;;;;;;8.60;2.90;;;;;;;7.07;100.00;100581.28;5268886;28;20084;-75
2024/03/24 01:35:59;;;;;;;6.50;2.50;;;;;;;7.08;100.00;100579.47;5266977;28;20119;-74
2024/03/24 01:38:29;;;;;;;11.88;3.13;;;;;;;7.20;100.00;100579.13;5269145;28;20027;-78
2024/03/24 01:41:00;;;;;;;9.98;2.90;;;;;;;7.06;100.00;100568.97;5267067;28;20028;-77
2024/03/24 01:43:30;;;;;;;17.35;3.17;;;;;;;7.08;100.00;100566.13;5267529;27;20022;-76
2024/03/24 01:46:02;;;;;;;13.50;3.30;;;;;;;7.04;100.00;100551.44;5270844;28;20028;-75
2024/03/24 01:48:32;;;;;;;12.60;3.25;;;;;;;7.07;100.00;100549.28;5268803;27;20031;-75
2024/03/24 01:51:08;;;;;;;15.75;3.17;;;;;;;7.04;100.00;100546.94;5270571;28;20046;-74
2024/03/24 01:53:39;;;;;;;10.88;3.20;;;;;;;7.01;100.00;100547.22;5270391;28;20027;-74
2024/03/24 01:56:10;;;;;;;13.30;3.97;;;;;;;7.07;100.00;100545.78;5273417;27;20026;-75
2024/03/24 01:58:41;;;;;;;11.60;3.40;;;;;;;7.07;100.00;100535.13;5263714;28;20024;-75
2024/03/24 02:01:12;;;;;;;12.57;3.13;;;;;;;6.98;100.00;100536.88;5271481;28;20035;-77
2024/03/24 02:03:42;;;;;;;10.40;2.70;;;;;;;6.98;100.00;100539.53;5272190;28;20032;-75
2024/03/24 02:06:13;;;;;;;11.02;3.22;;;;;;;6.99;100.00;100536.72;5273580;28;20253;-74
2024/03/24 02:08:44;;;;;;;9.50;3.35;;;;;;;7.06;100.00;100530.78;5267955;28;20028;-77
2024/03/24 02:11:15;;;;;;;15.48;3.20;;;;;;;7.03;100.00;100534.59;5272507;28;20484;-74
2024/03/24 02:13:46;;;;;;;18.88;2.97;;;;;;;7.04;100.00;100536.28;5267049;28;20397;-76
2024/03/24 02:16:17;;;;;;;11.45;2.85;;;;;;;7.03;100.00;100531.06;5270734;28;20026;-75
2024/03/24 02:18:48;;;;;;;10.85;2.97;;;;;;;7.04;100.00;100525.59;5265547;28;20028;-74
2024/03/24 02:21:19;;;;;;;11.85;3.80;;;;;;;7.04;100.00;100536.28;5276725;28;20034;-73
2024/03/24 02:23:57;;;;;;;11.23;3.15;;;;;;;7.09;100.00;100528.66;5262863;28;20485;-74
2024/03/24 02:26:28;;;;;;;12.88;2.83;;;;;;;7.09;100.00;100533.16;5272696;28;20023;-73
2024/03/24 02:29:16;;;;;;;11.90;3.33;;;;;;;7.15;100.00;100524.53;5262599;28;20481;-74
2024/03/24 02:31:52;;;;;;;10.30;2.67;;;;;;;7.21;100.00;100523.91;5273008;28;20098;-73
2024/03/24 02:34:39;;;;;;;18.02;4.13;;;;;;;7.29;100.00;100531.19;5269398;28;20031;-73
2024/03/24 02:37:10;;;;;;;15.07;2.88;;;;;;;7.41;100.00;100541.44;5271081;28;20023;-75
2024/03/24 02:39:41;;;;;;;16.67;3.13;;;;;;;7.36;100.00;100527.72;5266437;28;20073;-74
2024/03/24 02:42:11;;;;;;;13.85;3.45;;;;;;;7.34;100.00;100516.38;5268112;28;20027;-74
2024/03/24 02:44:42;;;;;;;15.43;2.70;;;;;;;7.35;100.00;100526.06;5268305;28;20047;-74
2024/03/24 02:47:13;;;;;;;11.40;2.88;;;;;;;7.22;100.00;100513.09;5270726;28;20031;-75
2024/03/24 02:49:43;;;;;;;13.82;3.17;;;;;;;7.20;100.00;100509.75;5264302;28;20485;-74
2024/03/24 02:52:14;;;;;;;7.65;2.70;;;;;;;7.20;100.00;100512.41;5270705;28;20023;-76
2024/03/24 02:54:46;;;;;;;12.90;2.88;;;;;;;7.20;100.00;100507.06;5267381;28;20035;-75
2024/03/24 02:57:17;;;;;;;13.20;2.65;;;;;;;7.22;100.00;100501.59;5262768;28;20038;-74
2024/03/24 02:59:48;;;;;;;17.58;2.97;;;;;;;7.23;100.00;100498.78;5266524;28;20477;-74
2024/03/24 03:02:31;;;;;;;11.18;3.15;;;;;;;7.24;100.00;100502.28;5265564;28;20034;-75
2024/03/24 03:05:06;;;;;;;9.52;2.65;;;;;;;7.20;100.00;100498.25;5266710;28;20401;-75
2024/03/24 03:07:37;;;;;;;21.08;4.00;;;;;;;7.15;100.00;100501.38;5269184;28;20028;-73
2024/03/24 03:10:08;;;;;;;12.52;2.75;;;;;;;7.15;100.00;100501.38;5266032;28;20027;-74
2024/03/24 03:12:40;;;;;;;11.93;3.55;;;;;;;7.14;100.00;100491.69;5267304;28;20035;-76
2024/03/24 03:15:15;;;;;;;13.43;2.88;;;;;;;7.22;100.00;100490.91;5272815;28;20493;-76
2024/03/24 03:17:46;;;;;;;12.73;3.42;;;;;;;7.26;100.00;100489.63;5264631;28;20081;-73
2024/03/24 03:20:18;;;;;;;14.13;2.33;;;;;;;7.23;100.00;100488.09;5264497;28;20496;-73
2024/03/24 03:22:49;;;;;;;11.00;2.97;;;;;;;7.23;100.00;100488.09;5266487;28;20027;-74
2024/03/24 03:25:19;;;;;;;13.73;2.78;;;;;;;7.18;100.00;100489.56;5272126;28;20024;-76
2024/03/24 03:27:50;;;;;;;16.95;3.45;;;;;;;7.23;100.00;100481.94;5266458;28;20512;-75
2024/03/24 03:30:22;;;;;;;15.82;2.83;;;;;;;7.26;100.00;100481.59;5272797;28;20019;-73
2024/03/24 03:32:52;;;;;;;16.40;2.50;;;;;;;7.19;100.00;100489.41;5271680;28;20053;-75
2024/03/24 03:35:23;;;;;;;12.90;2.55;;;;;;;7.28;100.00;100487.66;5274547;28;20020;-74
2024/03/24 03:37:54;;;;;;;11.50;2.78;;;;;;;7.32;100.00;100486.31;5268057;28;20402;-74
2024/03/24 03:40:25;;;;;;;13.90;2.90;;;;;;;7.39;100.00;100491.91;5273500;28;20020;-74
2024/03/24 03:42:56;;;;;;;9.85;2.58;;;;;;;7.45;100.00;100489.44;5270188;28;20028;-74
2024/03/24 03:45:26;;;;;;;10.05;2.70;;;;;;;7.45;100.00;100492.13;5269961;28;20047;-73
2024/03/24 03:47:57;;;;;;;13.85;2.50;;;;;;;7.47;100.00;100486.63;5269857;28;20038;-77
2024/03/24 03:50:33;;;;;;;15.23;3.00;;;;;;;7.53;100.00;100476.19;5272809;28;20028;-77
2024/03/24 03:53:06;;;;;;;10.10;2.90;;;;;;;7.51;100.00;100475.47;5270176;28;20469;-77
2024/03/24 03:55:37;;;;;;;15.05;2.80;;;;;;;7.46;100.00;100483.13;5272964;28;20527;-75
2024/03/24 03:58:08;;;;;;;18.60;3.20;;;;;;;7.48;100.00;100474.94;5260741;27;20062;-76
2024/03/24 04:00:41;;;;;;;14.35;3.15;;;;;;;7.50;100.00;100479.16;5269377;28;20020;-74
2024/03/24 04:03:13;;;;;;;16.13;3.78;;;;;;;7.59;100.00;100480.06;5267423;28;20035;-77
2024/03/24 04:05:44;;;;;;;14.70;2.90;;;;;;;7.55;100.00;100481.34;5270794;28;20097;-75
2024/03/24 04:08:14;;;;;;;18.38;3.85;;;;;;;7.58;100.00;100478.38;5274399;28;20027;-76
2024/03/24 04:10:45;;;;;;;16.55;2.97;;;;;;;7.60;100.00;100476.38;5270295;28;20028;-75
2024/03/24 04:13:16;;;;;;;11.98;2.28;;;;;;;7.61;100.00;100479.88;5271549;28;20016;-74
2024/03/24 04:15:47;;;;;;;9.27;2.67;;;;;;;7.68;100.00;100475.59;5268710;28;20489;-75
2024/03/24 04:18:17;;;;;;;15.68;3.05;;;;;;;7.72;100.00;100479.63;5268927;28;20485;-74
2024/03/24 04:20:48;;;;;;;24.17;3.38;;;;;;;7.75;100.00;100476.66;5267012;28;20084;-74
2024/03/24 04:23:19;;;;;;;12.18;3.65;;;;;;;7.79;100.00;100475.34;5266691;28;20028;-75
2024/03/24 04:25:54;;;;;;;19.52;3.45;;;;;;;7.69;100.00;100466.59;5265267;28;20032;-74
2024/03/24 04:28:24;;;;;;;9.07;2.50;;;;;;;7.68;100.00;100470.25;5267240;28;20046;-77
2024/03/24 04:30:55;;;;;;;19.90;3.75;;;;;;;7.68;100.00;100472.91;5266200;28;20016;-75
2024/03/24 04:33:26;;;;;;;14.82;3.30;;;;;;;7.69;100.00;100479.94;5269840;28;21649;-74
2024/03/24 04:35:57;;;;;;;18.60;3.38;;;;;;;7.70;100.00;100462.94;5266564;28;20051;-75
2024/03/24 04:38:28;;;;;;;19.17;3.13;;;;;;;7.68;100.00;100464.91;5269218;28;20024;-74
2024/03/24 04:40:58;;;;;;;12.13;3.38;;;;;;;7.69;100.00;100466.59;5275075;28;20023;-74
2024/03/24 04:43:29;;;;;;;15.88;3.33;;;;;;;7.74;100.00;100470.47;5273340;28;20065;-75
2024/03/24 04:46:00;;;;;;;17.10;2.92;;;;;;;7.80;100.00;100471.69;5269997;28;20153;-76
2024/03/24 04:48:31;;;;;;;21.80;3.90;;;;;;;7.83;100.00;100475.84;5268997;28;20027;-75
2024/03/24 04:51:02;;;;;;;17.75;3.03;;;;;;;7.80;100.00;100479.69;5272348;28;20024;-74
2024/03/24 04:53:34;;;;;;;15.77;2.95;;;;;;;7.82;100.00;100484.88;5268580;28;20106;-75
2024/03/24 04:56:05;;;;;;;19.92;3.13;;;;;;;7.82;100.00;100495.53;5270048;28;20110;-75
2024/03/24 04:58:35;;;;;;;16.02;3.17;;;;;;;7.77;100.00;100493.34;5272293;28;20106;-76
2024/03/24 05:01:06;;;;;;;11.90;2.90;;;;;;;7.61;100.00;100495.91;5268453;28;20043;-74
2024/03/24 05:03:37;;;;;;;12.20;3.63;;;;;;;7.58;100.00;100493.53;5267894;28;20027;-74
2024/03/24 05:06:07;;;;;;;15.95;4.20;;;;;;;7.63;100.00;100489.44;5270451;28;20027;-76
2024/03/24 05:08:38;;;;;;;14.48;3.33;;;;;;;7.51;100.00;100491.50;5272014;27;20478;-74
2024/03/24 05:11:09;;;;;;;15.27;3.55;;;;;;;7.52;100.00;100509.19;5270694;28;20060;-74
2024/03/24 05:13:40;;;;;;;17.38;4.97;;;;;;;7.36;100.00;100509.06;5269577;28;20484;-75
2024/03/24 05:16:10;;;;;;;20.23;3.60;;;;;;;7.31;100.00;100482.00;5270987;28;20076;-77
2024/03/24 05:18:41;;;;;;;14.27;3.38;;;;;;;7.29;100.00;100488.47;5270907;28;20047;-74
2024/03/24 05:21:12;;;;;;;12.93;3.15;;;;;;;7.22;100.00;100493.56;5274253;28;20473;-76
2024/03/24 05:23:42;;;;;;;10.15;2.97;;;;;;;7.15;100.00;100501.38;5262699;28;20046;-74
2024/03/24 05:26:13;;;;;;;14.10;2.85;;;;;;;7.16;100.00;100494.19;5274195;28;20786;-74
2024/03/24 05:28:43;;;;;;;12.27;3.30;;;;;;;7.14;100.00;100490.84;5263968;28;20035;-74
2024/03/24 05:31:14;;;;;;;7.60;2.92;;;;;;;7.14;100.00;100483.69;5270744;28;20425;-74
2024/03/24 05:33:45;;;;;;;14.73;3.33;;;;;;;7.10;100.00;100497.47;5269366;28;20024;-74
2024/03/24 05:36:15;;;;;;;12.23;3.88;;;;;;;7.07;100.00;100493.28;5267631;28;20016;-74
2024/03/24 05:38:46;;;;;;;11.73;3.72;;;;;;;7.04;100.00;100490.94;5266855;28;20020;-74
2024/03/24 05:41:16;;;;;;;14.07;3.45;;;;;;;6.98;100.00;100483.53;5273876;28;20361;-74
2024/03/24 05:43:47;;;;;;;12.10;3.80;;;;;;;7.00;100.00;100486.88;5267503;28;20039;-74
2024/03/24 05:46:17;;;;;;;15.70;5.70;;;;;;;6.96;100.00;100489.00;5272578;28;20103;-74
2024/03/24 05:48:49;;;;;;;19.90;5.00;;;;;;;6.94;100.00;100485.66;5267616;28;20049;-74
2024/03/24 05:51:19;;;;;;;29.77;14.50;;;;;;;6.96;100.00;100501.50;5272254;28;20027;-74
2024/03/24 05:53:50;;;;;;;21.75;6.32;;;;;;;6.99;100.00;100491.38;5273492;28;20096;-74
2024/03/24 05:56:20;;;;;;;24.30;7.70;;;;;;;6.95;100.00;100491.84;5268307;28;20416;-74
2024/03/24 05:58:51;;;;;;;21.27;6.22;;;;;;;6.93;100.00;100489.31;5271698;28;20059;-74
2024/03/24 06:01:23;;;;;;;20.23;7.82;;;;;;;7.04;100.00;100490.94;5267351;28;20024;-74
2024/03/24 06:03:53;;;;;;;19.15;6.70;;;;;;;7.07;100.00;100497.78;5263458;28;20435;-74
2024/03/24 06:06:24;;;;;;;19.85;7.30;;;;;;;7.15;100.00;100489.84;5270030;27;20030;-74
2024/03/24 06:08:55;;;;;;;22.98;5.65;;;;;;;7.22;100.00;100491.75;5268464;28;20046;-72
2024/03/24 06:11:25;;;;;;;27.83;5.15;;;;;;;7.32;100.00;100499.66;5267509;28;20435;-75
2024/03/24 06:13:56;;;;;;;15.15;4.88;;;;;;;7.29;100.00;100497.31;5265883;28;20032;-75
2024/03/24 06:16:26;;;;;;;16.20;5.43;;;;;;;7.32;100.00;100513.00;5272007;28;20073;-75
2024/03/24 06:18:57;;;;;;;15.05;5.95;;;;;;;7.36;100.00;100503.72;5272239;28;20138;-75
2024/03/24 06:21:27;;;;;;;15.43;4.53;;;;;;;7.51;100.00;100512.00;5273699;28;20100;-75
2024/03/24 06:23:58;;;;;;;18.42;4.57;;;;;;;7.42;100.00;100497.75;5270774;28;20013;-73
2024/03/24 06:26:28;;;;;;;18.00;3.80;;;;;;;7.48;100.00;100510.50;5272534;28;20396;-72
2024/03/24 06:28:59;;;;;;;17.95;5.55;;;;;;;7.56;100.00;100514.22;5268944;28;20085;-73
2024/03/24 06:31:29;;;;;;;14.15;4.72;;;;;;;7.59;100.00;100516.59;5271091;28;20022;-73
2024/03/24 06:34:02;;;;;;;19.50;4.65;;;;;;;7.76;100.00;100510.38;5271331;28;20024;-74
2024/03/24 06:36:34;;;;;;;16.48;4.00;;;;;;;7.77;100.00;100509.38;5268651;28;20036;-74
2024/03/24 06:39:05;;;;;;;12.57;3.42;;;;;;;7.75;100.00;100508.69;5272148;28;20051;-74
2024/03/24 06:41:38;;;;;;;30.20;16.67;;;;;;;7.87;100.00;100520.78;5268508;28;20557;-74
2024/03/24 06:44:17;;;;;;;75.00;45.92;;;;;;;7.96;100.00;100521.69;5264148;28;20506;-74
2024/03/24 06:46:47;;;;;;;20.45;6.72;;;;;;;7.94;100.00;100515.69;5270180;28;20031;-74
2024/03/24 06:49:19;;;;;;;15.05;7.28;;;;;;;7.92;100.00;100521.16;5271499;28;20023;-74
2024/03/24 06:51:49;;;;;;;12.10;3.60;;;;;;;7.90;100.00;100531.16;5270934;28;20036;-74
2024/03/24 06:54:20;;;;;;;21.50;4.30;;;;;;;7.94;100.00;100527.19;5271899;28;20080;-74
2024/03/24 06:56:51;;;;;;;16.17;4.63;;;;;;;7.94;100.00;100535.22;5259723;28;20024;-74
2024/03/24 06:59:22;;;;;;;12.75;3.90;;;;;;;7.91;100.00;100519.47;5272551;28;20641;-74
2024/03/24 07:01:52;;;;;;;15.80;3.40;;;;;;;7.85;100.00;100520.13;5271818;28;20031;-74
2024/03/24 07:04:23;;;;;;;17.75;4.70;;;;;;;7.90;100.00;100533.84;5272065;28;20024;-73
2024/03/24 07:06:53;;;;;;;16.17;4.78;;;;;;;7.92;100.00;100531.84;5275637;28;20020;-73
2024/03/24 07:09:25;;;;;;;15.82;4.13;;;;;;;7.85;100.00;100535.31;5274693;28;20378;-73
2024/03/24 07:11:55;;;;;;;17.45;4.35;;;;;;;8.19;100.00;100538.88;5263564;28;20103;-73
2024/03/24 07:14:26;;;;;;;13.50;3.92;;;;;;;8.51;100.00;100540.88;5263112;28;20020;-73
2024/03/24 07:16:56;;;;;;;17.70;3.78;;;;;;;8.78;100.00;100534.47;5274333;28;20028;-73
2024/03/24 07:19:27;;;;;;;26.20;4.32;;;;;;;9.04;100.00;100547.78;5273631;28;20023;-73
2024/03/24 07:21:58;;;;;;;13.95;3.67;;;;;;;8.96;100.00;100550.41;5269653;28;20030;-73
2024/03/24 07:24:28;;;;;;;22.17;5.22;;;;;;;8.88;100.00;100547.72;5268115;28;20384;-73
2024/03/24 07:26:59;;;;;;;18.13;3.75;;;;;;;8.82;100.00;100548.38;5262646;28;20036;-73
2024/03/24 07:29:29;;;;;;;36.65;10.85;;;;;;;8.85;100.00;100545.38;5271830;28;20024;-73
2024/03/24 07:32:00;;;;;;;27.02;14.95;;;;;;;9.27;100.00;100558.69;5268170;28;20144;-73
2024/03/24 07:34:31;;;;;;;33.00;20.45;;;;;;;9.91;100.00;100556.19;5268837;28;20095;-73
2024/03/24 07:37:02;;;;;;;26.42;5.57;;;;;;;10.18;100.00;100559.50;5271821;28;20020;-73
2024/03/24 07:39:33;;;;;;;16.98;4.38;;;;;;;10.27;100.00;100554.00;5272810;28;20028;-73
2024/03/24 07:42:04;;;;;;;8.32;3.35;;;;;;;10.43;100.00;100561.16;5270443;28;20479;-73
2024/03/24 07:44:36;;;;;;;14.07;3.63;;;;;;;10.90;100.00;100554.94;5270152;28;20045;-73
2024/03/24 07:47:07;;;;;;;14.45;2.72;;;;;;;11.13;100.00;100560.34;5274704;28;20031;-73
2024/03/24 07:49:37;;;;;;;12.02;3.50;;;;;;;11.17;100.00;100566.19;5270197;28;20362;-73
2024/03/24 07:52:07;;;;;;;20.90;4.15;;;;;;;11.23;100.00;100566.31;5270409;28;20688;-73
2024/03/24 07:54:38;;;;;;;14.45;3.50;;;;;;;11.46;100.00;100579.78;5265316;28;20077;-74
2024/03/24 07:57:09;;;;;;;15.43;3.33;;;;;;;11.32;100.00;100572.50;5268587;28;20397;-73
2024/03/24 07:59:39;;;;;;;10.95;2.78;;;;;;;11.37;100.00;100573.63;5264025;28;20016;-73
2024/03/24 08:02:10;;;;;;;11.13;2.78;;;;;;;11.61;100.00;100575.31;5266698;28;20411;-74
2024/03/24 08:04:40;;;;;;;14.93;2.85;;;;;;;11.98;100.00;100571.00;5263309;28;20008;-74
2024/03/24 08:07:11;;;;;;;15.85;3.53;;;;;;;11.76;100.00;100583.41;5270088;28;20775;-74
2024/03/24 08:09:41;;;;;;;12.35;3.13;;;;;;;11.88;100.00;100583.84;5264775;28;20028;-74
2024/03/24 08:12:12;;;;;;;10.38;2.85;;;;;;;12.25;100.00;100583.03;5262968;28;20031;-73
2024/03/24 08:14:45;;;;;;;10.60;2.80;;;;;;;12.37;100.00;100586.91;5258489;28;20104;-74
2024/03/24 08:17:15;;;;;;;13.88;3.42;;;;;;;12.79;100.00;100588.13;5249699;28;20485;-74
2024/03/24 08:19:46;;;;;;;12.10;3.20;;;;;;;13.49;100.00;100597.47;5264265;28;20053;-73
2024/03/24 08:22:17;;;;;;;13.23;3.40;;;;;;;13.31;100.00;100591.69;5263887;28;20080;-74
2024/03/24 08:24:47;;;;;;;17.23;3.13;;;;;;;12.54;100.00;100590.25;5266128;28;20016;-73
2024/03/24 08:27:20;;;;;;;14.32;3.95;;;;;;;12.34;100.00;100597.19;5263726;28;20526;-75
2024/03/24 08:29:51;;;;;;;12.48;3.30;;;;;;;12.22;100.00;100591.44;5264035;28;20016;-74
2024/03/24 08:32:22;;;;;;;10.13;3.47;;;;;;;12.47;100.00;100599.25;5265442;28;20024;-74
2024/03/24 08:34:53;;;;;;;15.32;3.13;;;;;;;12.69;100.00;100593.78;5262975;28;20401;-74
2024/03/24 08:37:23;;;;;;;15.15;2.92;;;;;;;13.01;100.00;100599.81;5263642;28;20015;-74
2024/03/24 08:39:54;;;;;;;11.60;3.30;;;;;;;13.54;100.00;100599.59;5263013;28;20481;-73
2024/03/24 08:42:26;;;;;;;13.00;3.30;;;;;;;14.02;100.00;100602.53;5260854;28;20028;-74
2024/03/24 08:44:56;;;;;;;15.55;3.97;;;;;;;13.41;100.00;100603.00;5263863;28;20457;-74
2024/03/24 08:47:27;;;;;;;20.20;3.65;;;;;;;13.23;100.00;100608.78;5263870;28;20036;-73
2024/03/24 08:49:57;;;;;;;15.85;2.92;;;;;;;13.36;100.00;100625.13;5263718;28;20028;-74
2024/03/24 08:52:28;;;;;;;15.88;3.03;;;;;;;13.47;100.00;100604.94;5265263;28;20026;-73
2024/03/24 08:54:59;;;;;;;17.00;9.15;;;;;;;13.63;100.00;100618.16;5265496;28;20386;-73
2024/03/24 08:57:30;;;;;;;12.63;2.75;;;;;;;13.89;100.00;100624.81;5266541;28;20024;-73
2024/03/24 09:00:00;;;;;;;15.77;2.80;;;;;;;13.54;100.00;100604.97;5264068;28;20024;-74
2024/03/24 09:02:31;;;;;;;17.85;4.05;;;;;;;13.14;100.00;100615.28;5262498;28;20020;-74
2024/03/24 09:05:03;;;;;;;29.92;5.53;;;;;;;12.62;100.00;100619.78;5265878;28;20050;-74
2024/03/24 09:07:33;;;;;;;16.27;3.92;;;;;;;12.73;100.00;100623.03;5264168;28;20491;-74
2024/03/24 09:10:04;;;;;;;16.05;3.40;;;;;;;12.46;100.00;100629.88;5264248;28;20016;-73
2024/03/24 09:12:35;;;;;;;15.45;3.20;;;;;;;11.70;100.00;100615.53;5262241;28;20024;-74
2024/03/24 09:15:06;;;;;;;17.45;2.78;;;;;;;11.42;100.00;100610.69;5263044;28;20027;-74
2024/03/24 09:17:36;;;;;;;17.85;2.72;;;;;;;11.06;100.00;100613.09;5262676;28;20028;-74
2024/03/24 09:20:08;;;;;;;14.50;3.03;;;;;;;10.86;100.00;100628.75;5263622;28;20038;-73
2024/03/24 09:22:39;;;;;;;16.73;3.97;;;;;;;11.23;100.00;100617.34;5264245;28;20024;-74
2024/03/24 09:25:09;;;;;;;17.33;3.25;;;;;;;11.33;100.00;100614.44;5264124;28;20476;-74
2024/03/24 09:27:40;;;;;;;14.60;3.35;;;;;;;11.63;100.00;100620.78;5263200;28;20483;-74
2024/03/24 09:30:11;;;;;;;12.10;2.92;;;;;;;11.87;100.00;100617.97;5265643;28;20124;-73
2024/03/24 09:32:42;;;;;;;19.10;3.60;;;;;;;12.13;100.00;100622.09;5265147;28;21063;-74
2024/03/24 09:35:12;;;;;;;19.00;3.17;;;;;;;12.11;100.00;100614.25;5266751;28;20036;-73
2024/03/24 09:37:43;;;;;;;21.13;3.40;;;;;;;12.33;100.00;100623.25;5264302;28;20481;-74
2024/03/24 09:40:13;;;;;;;21.15;5.97;;;;;;;12.49;100.00;100621.44;5263065;28;20662;-74
2024/03/24 09:42:49;;;;;;;17.20;3.40;;;;;;;12.23;100.00;100622.69;5262646;28;20019;-74
2024/03/24 09:45:21;;;;;;;20.17;3.95;;;;;;;11.86;100.00;100632.41;5267492;28;20020;-73
2024/03/24 09:47:53;;;;;;;17.90;3.88;;;;;;;11.41;100.00;100627.84;5262812;28;20046;-74
2024/03/24 09:50:25;;;;;;;15.63;3.10;;;;;;;11.13;100.00;100622.09;5262976;28;20026;-74
2024/03/24 09:52:56;;;;;;;20.20;2.92;;;;;;;11.19;100.00;100636.66;5266159;28;20525;-74
2024/03/24 09:55:27;;;;;;;14.43;2.95;;;;;;;11.31;100.00;100633.41;5266529;28;20098;-74
2024/03/24 09:57:58;;;;;;;17.60;4.13;;;;;;;11.67;100.00;100632.88;5269332;28;20038;-74
2024/03/24 10:00:29;;;;;;;15.20;3.15;;;;;;;12.22;100.00;100630.94;5266493;28;20016;-74
2024/03/24 10:03:00;;;;;;;10.15;3.13;;;;;;;12.56;100.00;100633.16;5264853;28;20028;-74
2024/03/24 10:05:32;;;;;;;13.98;3.20;;;;;;;12.87;100.00;100630.25;5266149;28;20011;-73
2024/03/24 10:08:03;;;;;;;9.23;3.05;;;;;;;12.85;100.00;100627.78;5264673;28;20354;-74
2024/03/24 10:10:35;;;;;;;16.85;4.03;;;;;;;12.56;100.00;100633.97;5262870;28;20028;-73
2024/03/24 10:13:09;;;;;;;14.30;2.92;;;;;;;12.56;100.00;100633.16;5262018;28;20016;-74
2024/03/24 10:15:41;;;;;;;15.50;3.70;;;;;;;12.46;100.00;100646.84;5265563;28;20020;-74
2024/03/24 10:18:14;;;;;;;9.55;2.72;;;;;;;12.00;100.00;100636.19;5264812;28;20039;-74
2024/03/24 10:20:45;;;;;;;13.93;3.28;;;;;;;11.70;100.00;100613.72;5259332;28;20016;-74
2024/03/24 10:23:16;;;;;;;17.23;3.53;;;;;;;11.43;100.00;100644.59;5261377;28;20165;-73
2024/03/24 10:25:57;;;;;;;12.77;3.78;;;;;;;11.29;100.00;100646.16;5263301;28;20395;-73
2024/03/24 10:28:28;;;;;;;17.05;4.05;;;;;;;11.18;100.00;100648.41;5261061;28;20034;-74
2024/03/24 10:31:07;;;;;;;15.68;4.07;;;;;;;11.07;100.00;100649.66;5266142;28;20020;-74
2024/03/24 10:33:39;;;;;;;17.48;3.78;;;;;;;11.58;100.00;100644.69;5264610;28;20118;-74
2024/03/24 10:36:09;;;;;;;25.40;8.75;;;;;;;11.81;100.00;100645.53;5264612;28;20098;-73
2024/03/24 10:38:41;;;;;;;44.83;11.15;;;;;;;12.21;100.00;100645.41;5263289;28;20400;-73
2024/03/24 10:41:13;;;;;;;20.52;6.20;;;;;;;12.42;100.00;100643.69;5266954;28;20024;-74
2024/03/24 10:43:46;;;;;;;20.00;12.43;;;;;;;12.58;100.00;100650.75;5255218;28;20057;-74
2024/03/24 10:46:17;;;;;;;17.58;4.55;;;;;;;12.72;100.00;100641.03;5261280;28;20070;-74
2024/03/24 10:48:50;;;;;;;14.68;3.22;;;;;;;12.72;100.00;100659.88;5261278;28;20027;-72
2024/03/24 10:51:23;;;;;;;13.25;3.67;;;;;;;12.69;100.00;100649.47;5258603;28;20020;-73
2024/03/24 10:53:54;;;;;;;8.95;2.72;;;;;;;12.63;100.00;100651.03;5262046;28;20048;-74
2024/03/24 10:56:25;;;;;;;18.52;3.03;;;;;;;12.42;100.00;100653.63;5265160;28;20077;-74
2024/03/24 10:58:57;;;;;;;10.50;2.78;;;;;;;12.43;100.00;100656.13;5262971;28;20030;-73
2024/03/24 11:01:28;;;;;;;15.18;3.47;;;;;;;12.46;100.00;100665.69;5258574;28;20050;-74
2024/03/24 11:04:01;;;;;;;13.25;3.10;;;;;;;12.45;100.00;100658.66;5260618;28;20035;-73
2024/03/24 11:06:33;;;;;;;16.63;3.33;;;;;;;12.54;100.00;100662.06;5263319;28;20024;-74
2024/03/24 11:09:05;;;;;;;14.82;3.03;;;;;;;12.62;100.00;100660.16;5264564;28;20126;-74
2024/03/24 11:11:37;;;;;;;13.23;2.55;;;;;;;12.67;100.00;100656.91;5265137;28;20020;-74
2024/03/24 11:14:10;;;;;;;12.70;2.65;;;;;;;12.98;100.00;100662.09;5261742;28;20047;-73
2024/03/24 11:16:40;;;;;;;8.68;2.50;;;;;;;13.37;100.00;100644.81;5265561;28;20713;-73
2024/03/24 11:19:11;;;;;;;15.23;3.10;;;;;;;13.38;100.00;100668.03;5266635;28;20039;-73
2024/03/24 11:21:43;;;;;;;9.25;2.70;;;;;;;13.29;100.00;100667.28;5263630;28;20024;-73
2024/03/24 11:24:26;;;;;;;10.43;2.63;;;;;;;13.02;100.00;100662.56;5262792;28;20020;-73
2024/03/24 11:26:58;;;;;;;12.80;2.80;;;;;;;13.00;100.00;100670.81;5262326;28;20541;-73
2024/03/24 11:29:45;;;;;;;19.83;3.72;;;;;;;12.56;100.00;100663.56;5260361;28;20039;-72
2024/03/24 11:32:17;;;;;;;11.85;4.05;;;;;;;12.48;100.00;100652.88;5262813;28;20062;-73